Terminal Aerodrome Forecast
Issued by NWS

Home | Current Version | Previous Version | Text Only | Print | Product List | Glossary On
Versions: 1 2 3 4 5 6 7 8 9 10 11 12 13 14
812
FTUS45 KABQ 241743
TAFGUP
TAF
KGUP 241743Z 2418/2518 15007KT P6SM VCSH SCT070 BKN120
      TEMPO 2419/2423 VRB15G30KT 3SM -TSRA OVC050CB
     FM242300 21008KT P6SM VCSH BKN070
     FM250800 23006KT P6SM SCT070 BKN120
     FM251400 24007KT P6SM BKN120=

USA.gov is the U.S. government's official web portal to all federal, state and local government web resources and services.